SBBR/BSB METAR and TAF weather

Enter ICAO airport designator
Station Type Date Time Source
SBBR METAR 2019/11/21 03:00 UTC NOAA

SBBR 210300Z 21003KT CAVOK 19/17 Q1018


Station Type Date Time Source
SBBR Decoded METAR 2019/11/21 03:00 UTC NOAA

Brasilia Aeroporto , Brazil (SBBR) 15-52S 047-56W 1061M
Nov 20, 2019 - 10:00 PM EST / 2019.11.21 0300 UTC
Wind: from the SSW (210 degrees) at 3 MPH (3 KT):0
Visibility: greater than 7 mile(s):0
Temperature: 66 F (19 C)
Dew Point: 62 F (17 C)
Relative Humidity: 88%
Pressure (altimeter): 30.06 in. Hg (1018 hPa)
ob: SBBR 210300Z 21003KT CAVOK 19/17 Q1018
cycle: 3

Station Type Date Time Source
SBBR TAF 2019/11/21 00:00 UTC NOAA

TAF SBBR 202200Z 2100/2124 08007KT 8000 SCT012 SCT025 FEW030TCU TN19/2108Z TX29/2116Z PROB30 2100/2102 5000 RA BKN015 FEW025TCU PROB30 2108/2111 BKN010 PROB40 2119/2122 5000 TSRA BKN018 FEW030CB
RMK PEU

Example: see airport list